^^
Station Historical Data
Daily Summary for December 08, 2017 Units:  English    Metric   Both
« Previous Day
Next Day »
Daily Weekly Monthly Yearly Custom
  High: Low: Average:
Temperature: 80.1 °F 64.6 °F 75.1 °F
Dew Point: 54.3 °F 42.3 °F 47.1 °F
Humidity: 67% 28% 38%
Wind Speed: 19.9mph -999.9mph -3.9mph
Wind Gust: 22.0mph - -
Wind- - North
Pressure: 30.29 in 30.21 in -
Precipitation: 0.00 in    
Historical Graphs
 
 
Tabular Data for December 08, 2017
Time Temperature Dew Point Pressure Wind Wind Speed Wind Gust Humidity Rainfall Rate (Hourly) solar Conditions
08:43 64.6 °F 53.4 °F 30.29 in North -999.9 mph -999.0 mph 67% 0.00 in meteobridge W/m2
08:49 64.9 °F 53.8 °F 30.29 in NNE 14.1 mph 14.1 mph 67% 0.00 in meteobridge W/m2
08:55 64.9 °F 53.8 °F 30.29 in NNE 6.0 mph 13.0 mph 67% 0.00 in meteobridge W/m2
08:59 65.5 °F 54.3 °F 30.29 in NNE 6.0 mph 12.0 mph 67% 0.00 in meteobridge W/m2
09:05 66.0 °F 53.4 °F 30.29 in North 10.1 mph 11.0 mph 64% 0.00 in meteobridge W/m2
09:24 67.5 °F 53.1 °F 30.29 in NE 6.9 mph 12.0 mph 60% 0.00 in meteobridge W/m2
09:30 67.8 °F 53.4 °F 30.28 in NNE 4.0 mph 6.0 mph 60% 0.00 in meteobridge W/m2
09:36 68.7 °F 52.9 °F 30.28 in NNE 4.9 mph 11.0 mph 57% 0.00 in meteobridge W/m2
09:48 68.9 °F 52.0 °F 30.28 in NNE 10.1 mph 15.0 mph 55% 0.00 in meteobridge W/m2
09:54 69.3 °F 52.0 °F 30.29 in NE 6.9 mph 15.0 mph 54% 0.00 in meteobridge W/m2
10:00 69.3 °F 52.0 °F 30.29 in NE 6.0 mph 12.0 mph 54% 0.00 in meteobridge W/m2
10:13 70.3 °F 52.3 °F 30.29 in NE 6.0 mph 11.0 mph 53% 0.00 in meteobridge W/m2
10:19 70.9 °F 52.3 °F 30.29 in NE 4.9 mph 13.0 mph 52% 0.00 in meteobridge W/m2
10:25 71.2 °F 52.2 °F 30.29 in North 8.9 mph 16.0 mph 51% 0.00 in meteobridge W/m2
10:31 71.4 °F 52.3 °F 30.29 in NNE 8.1 mph 10.0 mph 51% 0.00 in meteobridge W/m2
10:37 71.8 °F 51.1 °F 30.29 in NNE 6.0 mph 18.0 mph 48% 0.00 in meteobridge W/m2
10:43 72.3 °F 50.4 °F 30.28 in NNE 12.1 mph 18.0 mph 46% 0.00 in meteobridge W/m2
10:49 71.2 °F 51.1 °F 30.28 in ENE 12.1 mph 18.0 mph 49% 0.00 in meteobridge W/m2
10:55 72.0 °F 50.0 °F 30.29 in NNE 12.1 mph 16.0 mph 46% 0.00 in meteobridge W/m2
11:01 72.9 °F 50.4 °F 30.29 in North 8.9 mph 15.0 mph 45% 0.00 in meteobridge W/m2
11:07 73.0 °F 48.0 °F 30.29 in North 16.1 mph 20.0 mph 41% 0.00 in meteobridge W/m2
11:20 73.4 °F 48.9 °F 30.29 in North 19.9 mph 20.0 mph 42% 0.00 in meteobridge W/m2
11:26 73.4 °F 47.7 °F 30.29 in NNE 11.0 mph 17.0 mph 40% 0.00 in meteobridge W/m2
11:38 73.8 °F 49.3 °F 30.29 in North 16.1 mph 17.0 mph 42% 0.00 in meteobridge W/m2
11:44 73.8 °F 48.0 °F 30.29 in NNW 10.1 mph 17.0 mph 40% 0.00 in meteobridge W/m2
11:50 73.9 °F 49.5 °F 30.29 in NNE 8.9 mph 14.0 mph 42% 0.00 in meteobridge W/m2
12:02 72.9 °F 49.1 °F 30.29 in NNW 4.0 mph 15.0 mph 43% 0.00 in meteobridge W/m2
12:08 73.8 °F 46.6 °F 30.29 in NE 8.9 mph 19.0 mph 38% 0.00 in meteobridge W/m2
12:14 74.8 °F 48.9 °F 30.29 in North 8.1 mph 12.0 mph 40% 0.00 in meteobridge W/m2
12:20 75.0 °F 48.4 °F 30.29 in North 4.9 mph 16.0 mph 39% 0.00 in meteobridge W/m2
12:27 75.7 °F 48.4 °F 30.29 in North 10.1 mph 16.0 mph 38% 0.00 in meteobridge W/m2
12:33 75.7 °F 47.7 °F 30.29 in North 14.1 mph 15.0 mph 37% 0.00 in meteobridge W/m2
12:39 75.7 °F 49.6 °F 30.29 in NNE 15.0 mph 16.0 mph 40% 0.00 in meteobridge W/m2
12:45 75.4 °F 48.7 °F 30.29 in North 13.0 mph 17.0 mph 39% 0.00 in meteobridge W/m2
12:51 75.0 °F 46.9 °F 30.29 in NE 8.9 mph 15.0 mph 37% 0.00 in meteobridge W/m2
12:57 75.7 °F 48.4 °F 30.29 in North 14.1 mph 17.0 mph 38% 0.00 in meteobridge W/m2
13:03 75.6 °F 47.5 °F 30.28 in NNE 6.9 mph 15.0 mph 37% 0.00 in meteobridge W/m2
13:09 75.4 °F 47.3 °F 30.28 in NNW 4.9 mph 12.0 mph 37% 0.00 in meteobridge W/m2
13:15 76.1 °F 48.0 °F 30.28 in NNW 8.9 mph 15.0 mph 37% 0.00 in meteobridge W/m2
13:28 76.3 °F 45.9 °F 30.28 in NNE 2.9 mph 13.0 mph 34% 0.00 in meteobridge W/m2
13:34 75.9 °F 45.5 °F 30.28 in North 4.0 mph 12.0 mph 34% 0.00 in meteobridge W/m2
13:40 76.5 °F 46.0 °F 30.28 in ENE 2.0 mph 15.0 mph 34% 0.00 in meteobridge W/m2
13:52 76.8 °F 46.4 °F 30.28 in NNW 10.1 mph 18.0 mph 34% 0.00 in meteobridge W/m2
13:58 76.6 °F 46.2 °F 30.28 in NNE 2.9 mph 10.0 mph 34% 0.00 in meteobridge W/m2
14:04 77.5 °F 47.7 °F 30.28 in North 12.1 mph 19.0 mph 35% 0.00 in meteobridge W/m2
14:10 77.2 °F 48.2 °F 30.28 in NNW 2.9 mph 12.0 mph 36% 0.00 in meteobridge W/m2
14:16 77.5 °F 46.9 °F 30.28 in NNW 4.0 mph 8.0 mph 34% 0.00 in meteobridge W/m2
14:22 77.4 °F 47.5 °F 30.28 in NNE 8.1 mph 14.0 mph 35% 0.00 in meteobridge W/m2
14:28 77.5 °F 48.6 °F 30.27 in ENE 2.9 mph 5.0 mph 36% 0.00 in meteobridge W/m2
14:34 77.5 °F 46.9 °F 30.28 in North 10.1 mph 17.0 mph 34% 0.00 in meteobridge W/m2
14:40 76.3 °F 46.6 °F 30.28 in North 8.9 mph 17.0 mph 35% 0.00 in meteobridge W/m2
14:53 78.4 °F 46.9 °F 30.27 in North 15.0 mph 17.0 mph 33% 0.00 in meteobridge W/m2
14:59 78.1 °F 45.9 °F 30.26 in NNE 2.9 mph 11.0 mph 32% 0.00 in meteobridge W/m2
15:05 78.4 °F 45.3 °F 30.26 in North 0.9 mph 4.0 mph 31% 0.00 in meteobridge W/m2
15:11 79.7 °F 46.4 °F 30.26 in NNE 11.0 mph 22.0 mph 31% 0.00 in meteobridge W/m2
15:17 78.4 °F 45.3 °F 30.26 in NE 6.0 mph 19.0 mph 31% 0.00 in meteobridge W/m2
15:23 77.7 °F 43.9 °F 30.26 in NNE 4.9 mph 14.0 mph 30% 0.00 in meteobridge W/m2
15:29 77.5 °F 46.2 °F 30.25 in NNE 6.9 mph 11.0 mph 33% 0.00 in meteobridge W/m2
15:35 76.8 °F 44.8 °F 30.25 in North 6.0 mph 12.0 mph 32% 0.00 in meteobridge W/m2
15:41 77.2 °F 45.0 °F 30.25 in Calm   4.0 mph 32% 0.00 in meteobridge W/m2
15:48 79.5 °F 47.1 °F 30.24 in SSE 2.0 mph 9.0 mph 32% 0.00 in meteobridge W/m2
15:54 80.1 °F 45.9 °F 30.24 in North 8.9 mph 18.0 mph 30% 0.00 in meteobridge W/m2
16:00 78.6 °F 45.5 °F 30.24 in NNW 10.1 mph 13.0 mph 31% 0.00 in meteobridge W/m2
16:06 76.3 °F 44.2 °F 30.24 in North 12.1 mph 13.0 mph 32% 0.00 in meteobridge W/m2
16:12 76.5 °F 42.8 °F 30.24 in North 6.9 mph 11.0 mph 30% 0.00 in meteobridge W/m2
16:18 77.7 °F 43.9 °F 30.24 in North 8.9 mph 14.0 mph 30% 0.00 in meteobridge W/m2
16:24 78.4 °F 43.5 °F 30.23 in Calm   8.0 mph 29% 0.00 in meteobridge W/m2
16:30 77.5 °F 45.3 °F 30.23 in NNE 2.0 mph 12.0 mph 32% 0.00 in meteobridge W/m2
16:43 78.4 °F 45.3 °F 30.22 in NNW 10.1 mph 16.0 mph 31% 0.00 in meteobridge W/m2
16:55 78.1 °F 45.0 °F 30.22 in North 6.0 mph 9.0 mph 31% 0.00 in meteobridge W/m2
17:01 78.3 °F 44.2 °F 30.22 in North 6.9 mph 14.0 mph 30% 0.00 in meteobridge W/m2
17:07 78.1 °F 44.1 °F 30.22 in NNE 6.0 mph 9.0 mph 30% 0.00 in meteobridge W/m2
17:14 78.4 °F 42.6 °F 30.22 in NNE 2.0 mph 6.0 mph 28% 0.00 in meteobridge W/m2
17:20 78.8 °F 43.9 °F 30.22 in ENE 0.9 mph 6.0 mph 29% 0.00 in meteobridge W/m2
17:26 78.8 °F 43.0 °F 30.22 in NNE 6.0 mph 16.0 mph 28% 0.00 in meteobridge W/m2
17:32 78.4 °F 42.6 °F 30.22 in ENE 0.9 mph 6.0 mph 28% 0.00 in meteobridge W/m2
17:38 78.1 °F 43.2 °F 30.22 in North 4.9 mph 15.0 mph 29% 0.00 in meteobridge W/m2
17:44 77.7 °F 43.0 °F 30.21 in North 0.9 mph 11.0 mph 29% 0.00 in meteobridge W/m2
17:50 78.1 °F 43.2 °F 30.21 in North 2.0 mph 4.0 mph 29% 0.00 in meteobridge W/m2
17:56 77.9 °F 43.2 °F 30.22 in NNE 4.9 mph 15.0 mph 29% 0.00 in meteobridge W/m2
18:02 77.7 °F 43.0 °F 30.21 in West 6.0 mph 12.0 mph 29% 0.00 in meteobridge W/m2
18:08 77.5 °F 42.8 °F 30.22 in NNW 8.9 mph 20.0 mph 29% 0.00 in meteobridge W/m2
18:14 77.2 °F 42.4 °F 30.22 in NNW 6.0 mph 16.0 mph 29% 0.00 in meteobridge W/m2
18:27 77.2 °F 42.4 °F 30.22 in West 4.9 mph 8.0 mph 29% 0.00 in meteobridge W/m2
18:33 77.0 °F 42.3 °F 30.23 in North 4.0 mph 7.0 mph 29% 0.00 in meteobridge W/m2
18:39 76.6 °F 42.8 °F 30.23 in NNW 4.9 mph 5.0 mph 30% 0.00 in meteobridge W/m2
18:51 76.8 °F 43.0 °F 30.23 in Calm   1.0 mph 30% 0.00 in meteobridge W/m2
19:03 77.0 °F 43.2 °F 30.23 in WNW 4.0 mph 7.0 mph 30% 0.00 in meteobridge W/m2
19:10 76.6 °F 42.8 °F 30.23 in Calm   4.0 mph 30% 0.00 in meteobridge W/m2
19:16 76.3 °F 43.3 °F 30.24 in North 8.9 mph 10.0 mph 31% 0.00 in meteobridge W/m2
19:29 76.3 °F 43.3 °F 30.24 in North 8.9 mph -999.0 mph 31% 0.00 in meteobridge W/m2
Regenstein, Windhoek, Namibia
Compliments of Weather Underground - 2.5 mb